sensor_id;sensor_type;location;lat;lon;timestamp;P1;durP1;ratioP1;P2;durP2;ratioP2
9228;SDS011;4649;42.644;23.284;2023-04-15T04:47:43;5.60;;;2.60;;
9228;SDS011;4649;42.644;23.284;2023-04-15T04:50:10;5.93;;;2.20;;
9228;SDS011;4649;42.644;23.284;2023-04-15T04:52:37;2.43;;;2.23;;
9228;SDS011;4649;42.644;23.284;2023-04-15T04:55:04;3.00;;;1.93;;
9228;SDS011;4649;42.644;23.284;2023-04-15T04:57:32;2.07;;;1.97;;
9228;SDS011;4649;42.644;23.284;2023-04-15T05:00:00;2.50;;;2.30;;
9228;SDS011;4649;42.644;23.284;2023-04-15T05:02:27;2.30;;;2.20;;
9228;SDS011;4649;42.644;23.284;2023-04-15T05:04:55;6.67;;;2.70;;
9228;SDS011;4649;42.644;23.284;2023-04-15T05:07:22;3.33;;;3.13;;
9228;SDS011;4649;42.644;23.284;2023-04-15T05:09:49;3.53;;;3.23;;
9228;SDS011;4649;42.644;23.284;2023-04-15T05:12:15;5.60;;;3.97;;
9228;SDS011;4649;42.644;23.284;2023-04-15T05:14:42;4.43;;;4.17;;
9228;SDS011;4649;42.644;23.284;2023-04-15T05:17:10;6.30;;;3.90;;
9228;SDS011;4649;42.644;23.284;2023-04-15T05:19:38;4.93;;;4.30;;
9228;SDS011;4649;42.644;23.284;2023-04-15T05:22:06;4.40;;;4.10;;
9228;SDS011;4649;42.644;23.284;2023-04-15T05:24:33;4.27;;;3.97;;
9228;SDS011;4649;42.644;23.284;2023-04-15T05:26:59;6.73;;;3.93;;
9228;SDS011;4649;42.644;23.284;2023-04-15T05:29:26;4.00;;;3.80;;
9228;SDS011;4649;42.644;23.284;2023-04-15T05:31:53;3.90;;;3.70;;
9228;SDS011;4649;42.644;23.284;2023-04-15T05:34:20;4.40;;;4.00;;
9228;SDS011;4649;42.644;23.284;2023-04-15T05:36:47;4.23;;;3.93;;
9228;SDS011;4649;42.644;23.284;2023-04-15T05:39:15;3.97;;;3.67;;
9228;SDS011;4649;42.644;23.284;2023-04-15T05:41:42;3.13;;;2.93;;
9228;SDS011;4649;42.644;23.284;2023-04-15T05:44:09;3.20;;;2.90;;
9228;SDS011;4649;42.644;23.284;2023-04-15T05:46:35;4.77;;;3.40;;
9228;SDS011;4649;42.644;23.284;2023-04-15T05:49:02;5.90;;;3.13;;
9228;SDS011;4649;42.644;23.284;2023-04-15T05:51:29;3.23;;;3.03;;
9228;SDS011;4649;42.644;23.284;2023-04-15T05:53:56;3.77;;;3.40;;
9228;SDS011;4649;42.644;23.284;2023-04-15T05:56:24;3.50;;;2.60;;
9228;SDS011;4649;42.644;23.284;2023-04-15T05:58:51;2.38;;;2.28;;
9228;SDS011;4649;42.644;23.284;2023-04-15T06:01:18;2.78;;;2.55;;
9228;SDS011;4649;42.644;23.284;2023-04-15T06:03:45;2.38;;;2.28;;
9228;SDS011;4649;42.644;23.284;2023-04-15T06:06:12;4.40;;;2.83;;
9228;SDS011;4649;42.644;23.284;2023-04-15T06:08:39;2.92;;;2.72;;
9228;SDS011;4649;42.644;23.284;2023-04-15T06:11:06;3.28;;;2.95;;
9228;SDS011;4649;42.644;23.284;2023-04-15T06:13:34;3.50;;;2.75;;
9228;SDS011;4649;42.644;23.284;2023-04-15T06:16:01;4.47;;;3.00;;
9228;SDS011;4649;42.644;23.284;2023-04-15T06:18:28;4.03;;;2.95;;
9228;SDS011;4649;42.644;23.284;2023-04-15T06:20:54;3.42;;;3.03;;
9228;SDS011;4649;42.644;23.284;2023-04-15T06:23:22;10.05;;;3.28;;
9228;SDS011;4649;42.644;23.284;2023-04-15T06:25:49;9.27;;;3.13;;
9228;SDS011;4649;42.644;23.284;2023-04-15T06:28:15;5.10;;;3.30;;
9228;SDS011;4649;42.644;23.284;2023-04-15T06:30:43;3.15;;;2.95;;
9228;SDS011;4649;42.644;23.284;2023-04-15T06:33:10;3.50;;;3.17;;
9228;SDS011;4649;42.644;23.284;2023-04-15T06:35:37;9.68;;;3.33;;
9228;SDS011;4649;42.644;23.284;2023-04-15T06:38:04;4.35;;;2.50;;
9228;SDS011;4649;42.644;23.284;2023-04-15T06:40:31;3.20;;;3.00;;
9228;SDS011;4649;42.644;23.284;2023-04-15T06:42:58;4.78;;;4.35;;
9228;SDS011;4649;42.644;23.284;2023-04-15T06:45:24;7.28;;;6.63;;
9228;SDS011;4649;42.644;23.284;2023-04-15T06:47:52;3.30;;;3.05;;
9228;SDS011;4649;42.644;23.284;2023-04-15T06:50:19;6.10;;;3.33;;
9228;SDS011;4649;42.644;23.284;2023-04-15T06:52:46;5.25;;;2.83;;
9228;SDS011;4649;42.644;23.284;2023-04-15T06:55:13;5.10;;;2.75;;
9228;SDS011;4649;42.644;23.284;2023-04-15T06:57:39;4.35;;;3.28;;
9228;SDS011;4649;42.644;23.284;2023-04-15T07:00:07;4.25;;;2.63;;
9228;SDS011;4649;42.644;23.284;2023-04-15T07:02:35;5.25;;;2.55;;
9228;SDS011;4649;42.644;23.284;2023-04-15T07:05:04;3.10;;;2.90;;
9228;SDS011;4649;42.644;23.284;2023-04-15T07:07:31;2.42;;;2.22;;
9228;SDS011;4649;42.644;23.284;2023-04-15T07:09:58;2.60;;;2.40;;
9228;SDS011;4649;42.644;23.284;2023-04-15T07:12:26;2.65;;;2.47;;
9228;SDS011;4649;42.644;23.284;2023-04-15T07:14:53;2.50;;;2.30;;
9228;SDS011;4649;42.644;23.284;2023-04-15T07:17:21;2.70;;;2.40;;
9228;SDS011;4649;42.644;23.284;2023-04-15T07:19:47;2.35;;;2.17;;
9228;SDS011;4649;42.644;23.284;2023-04-15T07:22:16;2.72;;;2.25;;
9228;SDS011;4649;42.644;23.284;2023-04-15T07:24:43;2.15;;;2.03;;
9228;SDS011;4649;42.644;23.284;2023-04-15T07:27:09;4.22;;;2.35;;
9228;SDS011;4649;42.644;23.284;2023-04-15T07:29:36;2.67;;;2.47;;
9228;SDS011;4649;42.644;23.284;2023-04-15T07:32:03;3.25;;;2.95;;
9228;SDS011;4649;42.644;23.284;2023-04-15T07:34:32;3.03;;;2.80;;
9228;SDS011;4649;42.644;23.284;2023-04-15T07:36:59;3.70;;;2.83;;
9228;SDS011;4649;42.644;23.284;2023-04-15T07:39:27;5.13;;;2.58;;
9228;SDS011;4649;42.644;23.284;2023-04-15T07:41:55;4.95;;;2.33;;
9228;SDS011;4649;42.644;23.284;2023-04-15T07:44:23;2.73;;;2.53;;
9228;SDS011;4649;42.644;23.284;2023-04-15T07:46:50;5.00;;;2.20;;
9228;SDS011;4649;42.644;23.284;2023-04-15T07:49:16;3.50;;;2.50;;
9228;SDS011;4649;42.644;23.284;2023-04-15T07:51:45;2.53;;;2.33;;
9228;SDS011;4649;42.644;23.284;2023-04-15T07:54:13;2.37;;;2.17;;
9228;SDS011;4649;42.644;23.284;2023-04-15T07:56:43;2.50;;;2.40;;
9228;SDS011;4649;42.644;23.284;2023-04-15T07:59:10;6.23;;;5.77;;
9228;SDS011;4649;42.644;23.284;2023-04-15T08:01:39;5.13;;;2.00;;
9228;SDS011;4649;42.644;23.284;2023-04-15T08:04:06;4.10;;;2.23;;
9228;SDS011;4649;42.644;23.284;2023-04-15T08:06:33;3.73;;;2.23;;
9228;SDS011;4649;42.644;23.284;2023-04-15T08:09:00;3.00;;;2.80;;
9228;SDS011;4649;42.644;23.284;2023-04-15T08:11:27;2.33;;;2.10;;
9228;SDS011;4649;42.644;23.284;2023-04-15T08:13:55;1.83;;;1.73;;
9228;SDS011;4649;42.644;23.284;2023-04-15T08:16:23;2.17;;;1.60;;
9228;SDS011;4649;42.644;23.284;2023-04-15T08:18:52;1.47;;;1.27;;
9228;SDS011;4649;42.644;23.284;2023-04-15T08:21:20;1.93;;;1.83;;
9228;SDS011;4649;42.644;23.284;2023-04-15T08:23:48;4.83;;;1.47;;
9228;SDS011;4649;42.644;23.284;2023-04-15T08:26:17;2.07;;;1.43;;
9228;SDS011;4649;42.644;23.284;2023-04-15T08:28:44;1.50;;;1.40;;
9228;SDS011;4649;42.644;23.284;2023-04-15T08:31:13;2.30;;;1.60;;
9228;SDS011;4649;42.644;23.284;2023-04-15T08:33:40;2.30;;;1.63;;
9228;SDS011;4649;42.644;23.284;2023-04-15T08:36:07;3.43;;;1.63;;
9228;SDS011;4649;42.644;23.284;2023-04-15T08:38:34;3.33;;;1.40;;
9228;SDS011;4649;42.644;23.284;2023-04-15T08:41:02;1.70;;;1.60;;
9228;SDS011;4649;42.644;23.284;2023-04-15T08:43:33;1.40;;;1.20;;
9228;SDS011;4649;42.644;23.284;2023-04-15T08:46:02;1.70;;;1.30;;
9228;SDS011;4649;42.644;23.284;2023-04-15T08:48:32;2.00;;;1.90;;
9228;SDS011;4649;42.644;23.284;2023-04-15T08:50:59;4.30;;;1.73;;
9228;SDS011;4649;42.644;23.284;2023-04-15T08:53:27;1.30;;;1.20;;
9228;SDS011;4649;42.644;23.284;2023-04-15T08:55:55;1.03;;;0.90;;
9228;SDS011;4649;42.644;23.284;2023-04-15T08:58:23;0.90;;;0.80;;
9228;SDS011;4649;42.644;23.284;2023-04-15T09:00:50;0.63;;;0.63;;
9228;SDS011;4649;42.644;23.284;2023-04-15T09:03:17;0.90;;;0.70;;
9228;SDS011;4649;42.644;23.284;2023-04-15T09:05:47;0.60;;;0.60;;
9228;SDS011;4649;42.644;23.284;2023-04-15T09:08:14;1.23;;;0.67;;
9228;SDS011;4649;42.644;23.284;2023-04-15T09:10:41;0.50;;;0.50;;
9228;SDS011;4649;42.644;23.284;2023-04-15T09:13:08;4.93;;;4.53;;
9228;SDS011;4649;42.644;23.284;2023-04-15T09:15:36;0.63;;;0.60;;
9228;SDS011;4649;42.644;23.284;2023-04-15T09:18:04;0.43;;;0.43;;
9228;SDS011;4649;42.644;23.284;2023-04-15T09:20:34;0.57;;;0.57;;
9228;SDS011;4649;42.644;23.284;2023-04-15T09:23:11;0.50;;;0.50;;
9228;SDS011;4649;42.644;23.284;2023-04-15T09:25:40;0.40;;;0.40;;
9228;SDS011;4649;42.644;23.284;2023-04-15T09:28:07;1.37;;;0.50;;
9228;SDS011;4649;42.644;23.284;2023-04-15T09:30:34;1.37;;;0.80;;
9228;SDS011;4649;42.644;23.284;2023-04-15T09:33:02;0.70;;;0.70;;
9228;SDS011;4649;42.644;23.284;2023-04-15T09:35:32;1.83;;;0.70;;
9228;SDS011;4649;42.644;23.284;2023-04-15T09:38:01;0.77;;;0.77;;
9228;SDS011;4649;42.644;23.284;2023-04-15T09:40:34;0.83;;;0.77;;
9228;SDS011;4649;42.644;23.284;2023-04-15T09:43:02;1.93;;;0.73;;
9228;SDS011;4649;42.644;23.284;2023-04-15T09:45:30;0.60;;;0.60;;
9228;SDS011;4649;42.644;23.284;2023-04-15T09:47:58;1.83;;;0.50;;
9228;SDS011;4649;42.644;23.284;2023-04-15T09:50:39;0.63;;;0.57;;
9228;SDS011;4649;42.644;23.284;2023-04-15T09:53:08;0.60;;;0.57;;
9228;SDS011;4649;42.644;23.284;2023-04-15T09:55:37;0.40;;;0.40;;
9228;SDS011;4649;42.644;23.284;2023-04-15T09:58:07;1.80;;;0.80;;
9228;SDS011;4649;42.644;23.284;2023-04-15T10:00:34;0.83;;;0.83;;
9228;SDS011;4649;42.644;23.284;2023-04-15T10:03:03;0.93;;;0.60;;
9228;SDS011;4649;42.644;23.284;2023-04-15T10:05:31;1.00;;;1.00;;
9228;SDS011;4649;42.644;23.284;2023-04-15T10:07:59;1.83;;;0.87;;
9228;SDS011;4649;42.644;23.284;2023-04-15T10:10:28;0.90;;;0.80;;
9228;SDS011;4649;42.644;23.284;2023-04-15T10:12:58;1.17;;;0.90;;
9228;SDS011;4649;42.644;23.284;2023-04-15T10:15:26;1.37;;;1.00;;
9228;SDS011;4649;42.644;23.284;2023-04-15T10:17:55;0.80;;;0.80;;
9228;SDS011;4649;42.644;23.284;2023-04-15T10:20:23;1.07;;;0.90;;
9228;SDS011;4649;42.644;23.284;2023-04-15T10:22:50;0.67;;;0.67;;
9228;SDS011;4649;42.644;23.284;2023-04-15T10:25:21;0.77;;;0.77;;
9228;SDS011;4649;42.644;23.284;2023-04-15T10:27:51;2.10;;;0.90;;
9228;SDS011;4649;42.644;23.284;2023-04-15T10:30:20;0.80;;;0.80;;
9228;SDS011;4649;42.644;23.284;2023-04-15T10:32:47;1.07;;;0.90;;
9228;SDS011;4649;42.644;23.284;2023-04-15T10:35:15;1.47;;;0.87;;
9228;SDS011;4649;42.644;23.284;2023-04-15T10:37:42;2.77;;;0.90;;
9228;SDS011;4649;42.644;23.284;2023-04-15T10:42:56;1.07;;;0.87;;
9228;SDS011;4649;42.644;23.284;2023-04-15T10:45:26;3.67;;;1.13;;
9228;SDS011;4649;42.644;23.284;2023-04-15T10:47:54;0.70;;;0.70;;
9228;SDS011;4649;42.644;23.284;2023-04-15T10:50:24;1.37;;;1.13;;
9228;SDS011;4649;42.644;23.284;2023-04-15T10:52:52;4.20;;;1.47;;
9228;SDS011;4649;42.644;23.284;2023-04-15T10:55:19;0.97;;;0.97;;
9228;SDS011;4649;42.644;23.284;2023-04-15T10:57:50;0.70;;;0.70;;
9228;SDS011;4649;42.644;23.284;2023-04-15T11:00:19;0.97;;;0.90;;
9228;SDS011;4649;42.644;23.284;2023-04-15T11:02:52;1.23;;;1.07;;
9228;SDS011;4649;42.644;23.284;2023-04-15T11:05:21;3.07;;;0.90;;
9228;SDS011;4649;42.644;23.284;2023-04-15T11:07:50;1.10;;;0.90;;
9228;SDS011;4649;42.644;23.284;2023-04-15T11:13:17;2.10;;;1.23;;
9228;SDS011;4649;42.644;23.284;2023-04-15T11:15:47;0.93;;;0.83;;
9228;SDS011;4649;42.644;23.284;2023-04-15T11:18:18;1.03;;;0.83;;
9228;SDS011;4649;42.644;23.284;2023-04-15T11:20:46;1.10;;;0.70;;
9228;SDS011;4649;42.644;23.284;2023-04-15T11:23:14;1.03;;;1.00;;
9228;SDS011;4649;42.644;23.284;2023-04-15T11:25:43;0.70;;;0.70;;
9228;SDS011;4649;42.644;23.284;2023-04-15T11:28:10;0.90;;;0.90;;
9228;SDS011;4649;42.644;23.284;2023-04-15T11:30:38;0.97;;;0.93;;
9228;SDS011;4649;42.644;23.284;2023-04-15T11:33:06;6.43;;;0.90;;
9228;SDS011;4649;42.644;23.284;2023-04-15T11:35:35;0.70;;;0.70;;
9228;SDS011;4649;42.644;23.284;2023-04-15T11:38:07;3.40;;;0.87;;
9228;SDS011;4649;42.644;23.284;2023-04-15T11:40:35;1.00;;;1.00;;
9228;SDS011;4649;42.644;23.284;2023-04-15T11:43:03;4.00;;;0.80;;
9228;SDS011;4649;42.644;23.284;2023-04-15T11:45:31;0.70;;;0.70;;
9228;SDS011;4649;42.644;23.284;2023-04-15T11:48:04;0.87;;;0.60;;
9228;SDS011;4649;42.644;23.284;2023-04-15T11:50:32;1.23;;;0.73;;
9228;SDS011;4649;42.644;23.284;2023-04-15T11:53:02;1.87;;;0.80;;
9228;SDS011;4649;42.644;23.284;2023-04-15T11:55:32;1.43;;;1.07;;
9228;SDS011;4649;42.644;23.284;2023-04-15T11:58:07;1.50;;;1.00;;
9228;SDS011;4649;42.644;23.284;2023-04-15T12:00:35;0.83;;;0.80;;
9228;SDS011;4649;42.644;23.284;2023-04-15T12:03:21;1.20;;;1.00;;
9228;SDS011;4649;42.644;23.284;2023-04-15T12:06:04;2.97;;;1.00;;
9228;SDS011;4649;42.644;23.284;2023-04-15T12:08:50;0.90;;;0.80;;
9228;SDS011;4649;42.644;23.284;2023-04-15T12:11:28;1.47;;;1.17;;
9228;SDS011;4649;42.644;23.284;2023-04-15T12:14:06;2.93;;;1.27;;
9228;SDS011;4649;42.644;23.284;2023-04-15T12:16:37;1.00;;;1.00;;
9228;SDS011;4649;42.644;23.284;2023-04-15T12:19:05;2.23;;;0.93;;
9228;SDS011;4649;42.644;23.284;2023-04-15T12:21:34;2.27;;;0.67;;
9228;SDS011;4649;42.644;23.284;2023-04-15T12:24:04;1.13;;;0.73;;
9228;SDS011;4649;42.644;23.284;2023-04-15T12:26:34;0.80;;;0.80;;
9228;SDS011;4649;42.644;23.284;2023-04-15T12:29:03;0.97;;;0.73;;
9228;SDS011;4649;42.644;23.284;2023-04-15T12:31:31;1.10;;;0.90;;
9228;SDS011;4649;42.644;23.284;2023-04-15T12:33:58;1.27;;;0.90;;
9228;SDS011;4649;42.644;23.284;2023-04-15T12:36:26;2.63;;;0.90;;
9228;SDS011;4649;42.644;23.284;2023-04-15T12:38:54;1.50;;;0.80;;
9228;SDS011;4649;42.644;23.284;2023-04-15T12:41:22;1.97;;;1.07;;
9228;SDS011;4649;42.644;23.284;2023-04-15T12:43:49;1.03;;;1.03;;
9228;SDS011;4649;42.644;23.284;2023-04-15T12:46:16;0.77;;;0.77;;
9228;SDS011;4649;42.644;23.284;2023-04-15T12:48:44;0.70;;;0.70;;
9228;SDS011;4649;42.644;23.284;2023-04-15T12:51:11;1.10;;;0.70;;
9228;SDS011;4649;42.644;23.284;2023-04-15T13:00:35;0.87;;;0.87;;
9228;SDS011;4649;42.644;23.284;2023-04-15T13:03:03;0.77;;;0.77;;
9228;SDS011;4649;42.644;23.284;2023-04-15T13:05:38;0.97;;;0.90;;
9228;SDS011;4649;42.644;23.284;2023-04-15T13:08:09;0.90;;;0.90;;
9228;SDS011;4649;42.644;23.284;2023-04-15T13:10:36;4.43;;;0.70;;
9228;SDS011;4649;42.644;23.284;2023-04-15T13:13:03;0.87;;;0.67;;
9228;SDS011;4649;42.644;23.284;2023-04-15T13:15:31;1.10;;;1.03;;
9228;SDS011;4649;42.644;23.284;2023-04-15T13:17:59;3.60;;;0.60;;
9228;SDS011;4649;42.644;23.284;2023-04-15T13:20:26;1.73;;;0.80;;
9228;SDS011;4649;42.644;23.284;2023-04-15T13:22:53;0.70;;;0.60;;
9228;SDS011;4649;42.644;23.284;2023-04-15T13:25:20;0.43;;;0.43;;
9228;SDS011;4649;42.644;23.284;2023-04-15T13:27:47;2.20;;;0.60;;
9228;SDS011;4649;42.644;23.284;2023-04-15T13:30:14;3.90;;;1.27;;
9228;SDS011;4649;42.644;23.284;2023-04-15T13:32:41;0.83;;;0.83;;
9228;SDS011;4649;42.644;23.284;2023-04-15T13:35:09;2.83;;;0.50;;
9228;SDS011;4649;42.644;23.284;2023-04-15T13:37:36;0.60;;;0.60;;
9228;SDS011;4649;42.644;23.284;2023-04-15T13:40:03;0.73;;;0.73;;
9228;SDS011;4649;42.644;23.284;2023-04-15T13:42:32;0.47;;;0.47;;
9228;SDS011;4649;42.644;23.284;2023-04-15T13:44:59;0.90;;;0.50;;
9228;SDS011;4649;42.644;23.284;2023-04-15T13:47:35;0.77;;;0.77;;
9228;SDS011;4649;42.644;23.284;2023-04-15T13:53:47;0.80;;;0.80;;
9228;SDS011;4649;42.644;23.284;2023-04-15T13:56:14;1.13;;;0.77;;
9228;SDS011;4649;42.644;23.284;2023-04-15T14:04:58;0.60;;;0.60;;
9228;SDS011;4649;42.644;23.284;2023-04-15T14:08:21;2.10;;;1.10;;
9228;SDS011;4649;42.644;23.284;2023-04-15T14:14:08;1.07;;;1.07;;
9228;SDS011;4649;42.644;23.284;2023-04-15T14:16:35;0.80;;;0.80;;
9228;SDS011;4649;42.644;23.284;2023-04-15T14:19:02;0.80;;;0.80;;
9228;SDS011;4649;42.644;23.284;2023-04-15T14:21:29;1.83;;;0.90;;
9228;SDS011;4649;42.644;23.284;2023-04-15T14:24:03;0.80;;;0.80;;
9228;SDS011;4649;42.644;23.284;2023-04-15T14:26:31;2.03;;;0.73;;
9228;SDS011;4649;42.644;23.284;2023-04-15T14:28:58;1.27;;;1.17;;
9228;SDS011;4649;42.644;23.284;2023-04-15T14:31:27;0.60;;;0.60;;
9228;SDS011;4649;42.644;23.284;2023-04-15T14:33:54;0.53;;;0.53;;
9228;SDS011;4649;42.644;23.284;2023-04-15T14:36:20;0.60;;;0.60;;
9228;SDS011;4649;42.644;23.284;2023-04-15T14:38:49;0.73;;;0.70;;
9228;SDS011;4649;42.644;23.284;2023-04-15T14:41:16;4.73;;;0.70;;
9228;SDS011;4649;42.644;23.284;2023-04-15T14:43:43;1.27;;;1.20;;
9228;SDS011;4649;42.644;23.284;2023-04-15T14:46:10;1.57;;;0.90;;
9228;SDS011;4649;42.644;23.284;2023-04-15T14:48:39;2.47;;;0.83;;
9228;SDS011;4649;42.644;23.284;2023-04-15T14:51:06;1.37;;;1.00;;
9228;SDS011;4649;42.644;23.284;2023-04-15T14:53:33;0.80;;;0.80;;
9228;SDS011;4649;42.644;23.284;2023-04-15T14:56:00;1.43;;;1.10;;
9228;SDS011;4649;42.644;23.284;2023-04-15T14:58:32;0.60;;;0.60;;
9228;SDS011;4649;42.644;23.284;2023-04-15T15:02:09;1.00;;;0.80;;
9228;SDS011;4649;42.644;23.284;2023-04-15T15:04:38;0.90;;;0.70;;
9228;SDS011;4649;42.644;23.284;2023-04-15T15:07:05;2.10;;;0.90;;
9228;SDS011;4649;42.644;23.284;2023-04-15T15:09:32;1.10;;;0.83;;
9228;SDS011;4649;42.644;23.284;2023-04-15T15:18:52;0.90;;;0.90;;
9228;SDS011;4649;42.644;23.284;2023-04-15T15:25:18;1.93;;;1.03;;
9228;SDS011;4649;42.644;23.284;2023-04-15T15:27:45;1.13;;;1.10;;
9228;SDS011;4649;42.644;23.284;2023-04-15T15:30:12;0.80;;;0.80;;
9228;SDS011;4649;42.644;23.284;2023-04-15T15:32:40;0.80;;;0.80;;
9228;SDS011;4649;42.644;23.284;2023-04-15T15:35:07;0.80;;;0.80;;
9228;SDS011;4649;42.644;23.284;2023-04-15T15:50:15;1.00;;;1.00;;
9228;SDS011;4649;42.644;23.284;2023-04-15T15:53:02;1.10;;;0.90;;
